createdAt,value
2017-03-14T00:00:45.694Z,26
2017-03-14T00:01:44.580Z,26
2017-03-14T00:02:44.567Z,25.9
2017-03-14T00:03:44.673Z,25.9
2017-03-14T00:04:44.680Z,25.9
2017-03-14T00:05:44.645Z,25.9
2017-03-14T00:06:44.824Z,25.9
2017-03-14T00:07:45.786Z,25.9
2017-03-14T00:08:45.836Z,25.9
2017-03-14T00:09:44.857Z,26
2017-03-14T00:10:45.976Z,25.9
2017-03-14T00:11:46.055Z,25.9
2017-03-14T00:12:46.315Z,25.9
2017-03-14T00:13:45.079Z,25.9
2017-03-14T00:14:45.109Z,25.9
2017-03-14T00:15:45.199Z,26
2017-03-14T00:16:45.153Z,26
2017-03-14T00:17:46.342Z,26
2017-03-14T00:18:46.467Z,26
2017-03-14T00:19:46.369Z,26
2017-03-14T00:20:45.411Z,26
2017-03-14T00:21:45.386Z,26
2017-03-14T00:22:45.491Z,26
2017-03-14T00:23:46.476Z,26
2017-03-14T00:24:46.825Z,26
2017-03-14T00:25:46.682Z,26
2017-03-14T00:26:45.565Z,26
2017-03-14T00:27:46.772Z,26
2017-03-14T00:28:45.822Z,26
2017-03-14T00:29:45.830Z,26
2017-03-14T00:30:47.048Z,26
2017-03-14T00:31:45.986Z,26
2017-03-14T00:32:45.921Z,26
2017-03-14T00:33:47.022Z,26
2017-03-14T00:34:47.083Z,26
2017-03-14T00:35:46.176Z,26
2017-03-14T00:36:46.336Z,26
2017-03-14T00:37:47.255Z,26
2017-03-14T00:38:46.320Z,26
2017-03-14T00:39:47.354Z,26
2017-03-14T00:40:46.302Z,26
2017-03-14T00:41:47.564Z,26
2017-03-14T00:42:46.593Z,26
2017-03-14T00:43:47.528Z,26
2017-03-14T00:44:46.597Z,26
2017-03-14T00:45:46.589Z,26
2017-03-14T00:46:46.597Z,26
2017-03-14T00:47:47.668Z,26
2017-03-14T00:48:47.749Z,26
2017-03-14T00:49:46.682Z,26
2017-03-14T00:50:46.819Z,26
2017-03-14T00:51:46.830Z,26
2017-03-14T00:52:47.947Z,26
2017-03-14T00:53:46.878Z,26
2017-03-14T00:54:47.047Z,26
2017-03-14T00:55:48.004Z,26
2017-03-14T00:56:46.946Z,26
2017-03-14T00:57:47.063Z,26
2017-03-14T00:58:47.165Z,26
2017-03-14T00:59:47.115Z,26
2017-03-14T01:00:48.352Z,26
2017-03-14T01:01:47.201Z,26
2017-03-14T01:02:48.412Z,26
2017-03-14T01:03:48.420Z,26
2017-03-14T01:04:48.548Z,26
2017-03-14T01:05:47.565Z,26
2017-03-14T01:06:47.914Z,26
2017-03-14T01:07:47.702Z,26
2017-03-14T01:08:47.633Z,26
2017-03-14T01:09:48.763Z,26
2017-03-14T01:10:48.796Z,26
2017-03-14T01:11:48.856Z,26
2017-03-14T01:12:48.096Z,26
2017-03-14T01:13:49.004Z,26
2017-03-14T01:14:49.136Z,26
2017-03-14T01:15:49.141Z,26
2017-03-14T01:16:48.104Z,26
2017-03-14T01:17:49.297Z,26
2017-03-14T01:18:49.487Z,26
2017-03-14T01:19:49.320Z,26
2017-03-14T01:20:48.337Z,26
2017-03-14T01:21:49.507Z,26
2017-03-14T01:22:49.469Z,26
2017-03-14T01:23:48.521Z,26
2017-03-14T01:24:48.630Z,26
2017-03-14T01:25:48.628Z,26
2017-03-14T01:26:49.725Z,26
2017-03-14T01:27:49.804Z,26
2017-03-14T01:28:49.820Z,26
2017-03-14T01:29:49.924Z,26
2017-03-14T01:30:49.047Z,26
2017-03-14T01:31:48.860Z,26
2017-03-14T01:32:48.956Z,26
2017-03-14T01:33:49.967Z,26
2017-03-14T01:34:48.950Z,26
2017-03-14T01:35:49.068Z,26
2017-03-14T01:36:49.283Z,26
2017-03-14T01:37:50.148Z,26
2017-03-14T01:38:50.167Z,26
2017-03-14T01:39:49.139Z,26
2017-03-14T01:40:50.262Z,26
2017-03-14T01:41:50.380Z,26
2017-03-14T01:42:50.559Z,26
2017-03-14T01:43:50.442Z,26
2017-03-14T01:44:49.489Z,26
2017-03-14T01:45:50.599Z,26
2017-03-14T01:46:50.669Z,26
2017-03-14T01:47:50.856Z,26
2017-03-14T01:48:50.688Z,26
2017-03-14T01:49:50.717Z,26
2017-03-14T01:50:50.726Z,26
2017-03-14T01:51:49.692Z,26
2017-03-14T01:52:50.790Z,26
2017-03-14T01:53:50.047Z,26
2017-03-14T01:54:50.973Z,26
2017-03-14T01:55:51.052Z,26
2017-03-14T01:56:51.046Z,26
2017-03-14T01:57:50.019Z,26
2017-03-14T01:58:50.206Z,26
2017-03-14T01:59:51.385Z,26
2017-03-14T02:00:51.322Z,26
2017-03-14T02:01:50.274Z,26
2017-03-14T02:02:50.279Z,26
2017-03-14T02:03:50.468Z,26
2017-03-14T02:04:50.380Z,26
2017-03-14T02:05:50.725Z,26
2017-03-14T02:06:50.463Z,26
2017-03-14T02:07:50.497Z,26
2017-03-14T02:08:51.635Z,26
2017-03-14T02:09:51.718Z,26.1
2017-03-14T02:10:51.649Z,26
2017-03-14T02:11:52.121Z,26.1
2017-03-14T02:12:50.797Z,26.1
2017-03-14T02:13:50.788Z,26.1
2017-03-14T02:14:50.754Z,26
2017-03-14T02:15:51.890Z,26
2017-03-14T02:16:51.963Z,26
2017-03-14T02:17:51.005Z,26
2017-03-14T02:18:52.007Z,26.1
2017-03-14T02:19:50.981Z,26.1
2017-03-14T02:20:51.044Z,26.1
2017-03-14T02:21:52.235Z,26.1
2017-03-14T02:22:52.280Z,26.1
2017-03-14T02:23:52.385Z,26.1
2017-03-14T02:24:52.302Z,26
2017-03-14T02:25:52.295Z,26.1
2017-03-14T02:26:51.321Z,26
2017-03-14T02:27:52.305Z,26
2017-03-14T02:28:51.281Z,26.1
2017-03-14T02:29:51.464Z,26.1
2017-03-14T02:30:52.368Z,26.1
2017-03-14T02:31:52.420Z,26.1
2017-03-14T02:32:51.455Z,26.1
2017-03-14T02:33:52.598Z,26.1
2017-03-14T02:34:51.586Z,26.1
2017-03-14T02:35:51.778Z,26.1
2017-03-14T02:36:51.594Z,26.1
2017-03-14T02:37:51.665Z,26.1
2017-03-14T02:38:52.749Z,26.1
2017-03-14T02:39:52.766Z,26.1
2017-03-14T02:40:51.772Z,26.1
2017-03-14T02:41:53.191Z,26.1
2017-03-14T02:42:51.985Z,26.1
2017-03-14T02:43:53.051Z,26.1
2017-03-14T02:44:52.017Z,26.1
2017-03-14T02:45:53.110Z,26.1
2017-03-14T02:46:53.306Z,26.1
2017-03-14T02:47:53.366Z,26.1
2017-03-14T02:48:52.334Z,26.1
2017-03-14T02:49:53.401Z,26.1
2017-03-14T02:50:53.515Z,26.1
2017-03-14T02:51:53.565Z,26.1
2017-03-14T02:52:53.558Z,26.1
2017-03-14T02:53:53.695Z,26.1
2017-03-14T02:54:52.567Z,26.1
2017-03-14T02:55:52.603Z,26.1
2017-03-14T02:56:52.691Z,26.1
2017-03-14T02:57:53.766Z,26.1
2017-03-14T02:58:52.729Z,26.1
2017-03-14T02:59:53.004Z,26.1
2017-03-14T03:00:52.790Z,26.1
2017-03-14T03:01:53.983Z,26.1
2017-03-14T03:02:52.898Z,26.1
2017-03-14T03:03:54.104Z,26.1
2017-03-14T03:04:54.070Z,26.1
2017-03-14T03:05:54.277Z,26.1
2017-03-14T03:06:53.016Z,26.1
2017-03-14T03:07:54.153Z,26.1
2017-03-14T03:08:54.243Z,26.1
2017-03-14T03:09:53.143Z,26.1
2017-03-14T03:10:54.328Z,26.1
2017-03-14T03:11:53.377Z,26.1
2017-03-14T03:12:54.276Z,26.1
2017-03-14T03:13:53.290Z,26.1
2017-03-14T03:14:54.028Z,26.1
2017-03-14T03:15:53.469Z,26.1
2017-03-14T03:16:53.423Z,26.1
2017-03-14T03:17:53.744Z,26.1
2017-03-14T03:18:54.109Z,26.1
2017-03-14T03:19:53.544Z,26.1
2017-03-14T03:20:53.736Z,26.1
2017-03-14T03:21:54.824Z,26.1
2017-03-14T03:22:53.723Z,26.1
2017-03-14T03:23:55.052Z,26.1
2017-03-14T03:24:54.492Z,26
2017-03-14T03:25:53.957Z,26
2017-03-14T03:26:54.124Z,26
2017-03-14T03:27:54.076Z,26
2017-03-14T03:28:55.127Z,26
2017-03-14T03:29:55.403Z,26
2017-03-14T03:30:55.295Z,26
2017-03-14T03:31:55.266Z,26
2017-03-14T03:32:55.356Z,26
2017-03-14T03:33:55.458Z,26
2017-03-14T03:34:54.459Z,26
2017-03-14T03:35:54.535Z,26
2017-03-14T03:36:55.618Z,26
2017-03-14T03:37:55.715Z,26.1
2017-03-14T03:38:54.615Z,26.1
2017-03-14T03:39:54.612Z,26.1
2017-03-14T03:40:56.009Z,26.1
2017-03-14T03:41:55.927Z,26
2017-03-14T03:42:54.836Z,26
2017-03-14T03:43:54.894Z,26
2017-03-14T03:44:56.045Z,26.1
2017-03-14T03:45:55.759Z,26.1
2017-03-14T03:46:56.459Z,26.1
2017-03-14T03:47:56.790Z,26.1
2017-03-14T03:48:55.198Z,26.1
2017-03-14T03:49:56.369Z,26.1
2017-03-14T03:50:56.424Z,26
2017-03-14T03:51:56.445Z,26.1
2017-03-14T03:52:55.686Z,26.1
2017-03-14T03:53:55.495Z,26.1
2017-03-14T03:55:00.361Z,26.1
2017-03-14T03:55:56.654Z,26.1
2017-03-14T03:56:56.717Z,26.1
2017-03-14T03:57:56.940Z,26.1
2017-03-14T03:58:57.478Z,26.1
2017-03-14T03:59:56.920Z,26.1
2017-03-14T04:00:56.949Z,26.1
2017-03-14T04:01:55.879Z,26.1
2017-03-14T04:02:56.865Z,26.1
2017-03-14T04:03:56.071Z,26.1
2017-03-14T04:04:57.099Z,26.1
2017-03-14T04:05:57.094Z,26.1
2017-03-14T04:06:57.136Z,26.1
2017-03-14T04:07:56.111Z,26.1
2017-03-14T04:08:57.244Z,26.1
2017-03-14T04:09:56.348Z,26.1
2017-03-14T04:10:56.284Z,26.1
2017-03-14T04:11:57.474Z,26.1
2017-03-14T04:12:57.470Z,26.1
2017-03-14T04:13:57.579Z,26.1
2017-03-14T04:14:56.474Z,26.1
2017-03-14T04:15:56.740Z,26.1
2017-03-14T04:16:56.574Z,26.1
2017-03-14T04:17:57.662Z,26.1
2017-03-14T04:18:57.741Z,26.1
2017-03-14T04:19:56.772Z,26.1
2017-03-14T04:20:57.879Z,26.1
2017-03-14T04:21:57.058Z,26.1
2017-03-14T04:22:56.992Z,26.1
2017-03-14T04:23:58.095Z,26.1
2017-03-14T04:24:58.058Z,26.1
2017-03-14T04:25:57.009Z,26.1
2017-03-14T04:26:57.087Z,26.1
2017-03-14T04:27:58.425Z,26.1
2017-03-14T04:28:58.237Z,26.1
2017-03-14T04:29:57.223Z,26.1
2017-03-14T04:30:57.257Z,26.1
2017-03-14T04:31:57.399Z,26.1
2017-03-14T04:32:58.435Z,26.1
2017-03-14T04:33:58.696Z,26.1
2017-03-14T04:34:58.569Z,26.1
2017-03-14T04:35:58.044Z,26.1
2017-03-14T04:36:57.642Z,26.1
2017-03-14T04:37:58.746Z,26.1
2017-03-14T04:38:57.682Z,26.1
2017-03-14T04:39:58.890Z,26.1
2017-03-14T04:40:57.807Z,26.1
2017-03-14T04:41:57.949Z,26.1
2017-03-14T04:42:59.047Z,26.1
2017-03-14T04:43:58.044Z,26.2
2017-03-14T04:44:59.047Z,26.2
2017-03-14T04:45:59.121Z,26.1
2017-03-14T04:46:58.190Z,26.2
2017-03-14T04:47:59.280Z,26.2
2017-03-14T04:48:59.315Z,26.2
2017-03-14T04:49:59.341Z,26.2
2017-03-14T04:50:59.495Z,26.2
2017-03-14T04:51:59.411Z,26.2
2017-03-14T04:52:58.421Z,26.2
2017-03-14T04:53:58.458Z,26.2
2017-03-14T04:54:58.537Z,26.3
2017-03-14T04:55:58.598Z,26.3
2017-03-14T04:56:58.877Z,26.3
2017-03-14T04:57:59.763Z,26.3
2017-03-14T04:58:58.831Z,26.3
2017-03-14T04:59:59.850Z,26.3
2017-03-14T05:00:59.943Z,26.3
2017-03-14T05:01:58.945Z,26.3
2017-03-14T05:03:00.205Z,26.3
2017-03-14T05:03:59.985Z,26.3
2017-03-14T05:05:00.040Z,26.3
2017-03-14T05:05:59.674Z,26.3
2017-03-14T05:07:00.136Z,26.3
2017-03-14T05:07:59.278Z,26.3
2017-03-14T05:08:59.338Z,26.3
2017-03-14T05:09:59.223Z,26.3
2017-03-14T05:11:00.368Z,26.3
2017-03-14T05:11:59.454Z,26.3
2017-03-14T05:12:59.395Z,26.3
2017-03-14T05:14:00.494Z,26.3
2017-03-14T05:15:00.697Z,26.3
2017-03-14T05:15:59.512Z,26.3
2017-03-14T05:17:00.605Z,26.3
2017-03-14T05:18:00.753Z,26.3
2017-03-14T05:19:00.761Z,26.4
2017-03-14T05:20:00.849Z,26.3
2017-03-14T05:21:00.944Z,26.3
2017-03-14T05:21:59.742Z,26.3
2017-03-14T05:22:59.804Z,26.3
2017-03-14T05:24:01.011Z,26.3
2017-03-14T05:25:01.029Z,26.3
2017-03-14T05:26:01.094Z,26.3
2017-03-14T05:27:01.405Z,26.3
2017-03-14T05:28:00.265Z,26.3
2017-03-14T05:29:01.319Z,26.3
2017-03-14T05:30:00.330Z,26.3
2017-03-14T05:31:00.336Z,26.3
2017-03-14T05:32:00.353Z,26.3
2017-03-14T05:33:01.687Z,26.3
2017-03-14T05:34:00.408Z,26.3
2017-03-14T05:35:00.505Z,26.3
2017-03-14T05:36:01.665Z,26.3
2017-03-14T05:37:00.608Z,26.3
2017-03-14T05:38:02.459Z,26.4
2017-03-14T05:39:01.791Z,26.5
2017-03-14T05:40:01.779Z,26.6
2017-03-14T05:41:00.791Z,26.8
2017-03-14T05:42:00.789Z,26.9
2017-03-14T05:43:01.841Z,27.1
2017-03-14T05:44:01.181Z,27.2
2017-03-14T05:45:00.955Z,27.3
2017-03-14T05:46:00.920Z,27.4
2017-03-14T05:47:01.070Z,27.4
2017-03-14T05:48:02.140Z,27.4
2017-03-14T05:49:02.139Z,27.4
2017-03-14T05:50:01.419Z,27.4
2017-03-14T05:51:01.243Z,27.4
2017-03-14T05:52:01.188Z,27.4
2017-03-14T05:53:02.263Z,27.5
2017-03-14T05:54:01.272Z,27.5
2017-03-14T05:55:02.408Z,27.5
2017-03-14T05:56:02.696Z,27.5
2017-03-14T05:57:01.380Z,27.5
2017-03-14T05:58:02.599Z,27.5
2017-03-14T05:59:02.665Z,27.5
2017-03-14T06:00:01.573Z,27.5
2017-03-14T06:01:01.932Z,27.4
2017-03-14T06:02:02.797Z,27.4
2017-03-14T06:03:02.801Z,27.4
2017-03-14T06:04:01.759Z,27.4
2017-03-14T06:05:01.894Z,27.4
2017-03-14T06:06:01.945Z,27.4
2017-03-14T06:07:03.267Z,27.4
2017-03-14T06:08:02.044Z,27.4
2017-03-14T06:09:01.955Z,27.4
2017-03-14T06:10:03.061Z,27.4
2017-03-14T06:11:02.080Z,27.5
2017-03-14T06:12:03.300Z,27.4
2017-03-14T06:13:02.380Z,27.4
2017-03-14T06:14:03.482Z,27.4
2017-03-14T06:15:02.509Z,27.4
2017-03-14T06:16:02.570Z,27.4
2017-03-14T06:17:02.604Z,27.3
2017-03-14T06:18:03.695Z,27.3
2017-03-14T06:19:03.827Z,27.3
2017-03-14T06:20:03.768Z,27.3
2017-03-14T06:21:03.816Z,27.2
2017-03-14T06:22:02.770Z,27.2
2017-03-14T06:23:03.796Z,27.2
2017-03-14T06:24:02.879Z,27.2
2017-03-14T06:25:04.216Z,27.2
2017-03-14T06:26:02.869Z,27.2
2017-03-14T06:27:02.944Z,27.1
2017-03-14T06:28:02.952Z,27.2
2017-03-14T06:29:03.041Z,27.2
2017-03-14T06:30:04.286Z,27.1
2017-03-14T06:31:03.331Z,27.2
2017-03-14T06:32:03.225Z,27.2
2017-03-14T06:33:03.255Z,27.2
2017-03-14T06:34:04.313Z,27.1
2017-03-14T06:35:03.304Z,27.1
2017-03-14T06:36:05.059Z,27.1
2017-03-14T06:37:03.524Z,27.1
2017-03-14T06:38:04.425Z,27.1
2017-03-14T06:39:04.468Z,27.1
2017-03-14T06:40:04.506Z,27.2
2017-03-14T06:41:04.630Z,27.1
2017-03-14T06:42:04.734Z,27.2
2017-03-14T06:43:04.797Z,27.2
2017-03-14T06:44:03.652Z,27.2
2017-03-14T06:45:04.992Z,27.2
2017-03-14T06:46:03.905Z,27.2
2017-03-14T06:47:04.858Z,27
2017-03-14T06:48:03.776Z,26.8
2017-03-14T06:49:05.141Z,26.7
2017-03-14T06:50:03.941Z,26.9
2017-03-14T06:51:05.205Z,27.1
2017-03-14T06:52:06.385Z,27.2
2017-03-14T06:53:05.277Z,27.1
2017-03-14T06:54:04.765Z,27.1
2017-03-14T06:55:05.469Z,27.1
2017-03-14T06:56:05.351Z,27
2017-03-14T06:57:05.408Z,26.9
2017-03-14T06:58:05.462Z,26.8
2017-03-14T06:59:05.483Z,26.7
2017-03-14T07:00:05.565Z,26.8
2017-03-14T07:01:04.679Z,26.8
2017-03-14T07:02:05.666Z,26.9
2017-03-14T07:03:04.646Z,26.9
2017-03-14T07:04:05.752Z,27
2017-03-14T07:05:04.889Z,27
2017-03-14T07:06:06.624Z,27.1
2017-03-14T07:07:06.124Z,27.1
2017-03-14T07:08:04.956Z,27.2
2017-03-14T07:09:05.964Z,27.2
2017-03-14T07:10:06.206Z,27.2
2017-03-14T07:11:05.097Z,27.1
2017-03-14T07:12:05.109Z,27.1
2017-03-14T07:13:05.543Z,27.1
2017-03-14T07:14:05.347Z,27.1
2017-03-14T07:15:05.940Z,27
2017-03-14T07:16:06.377Z,27
2017-03-14T07:17:05.399Z,27
2017-03-14T07:18:07.113Z,27
2017-03-14T07:19:06.764Z,27
2017-03-14T07:20:06.306Z,26.9
2017-03-14T07:21:05.587Z,27
2017-03-14T07:22:05.569Z,26.9
2017-03-14T07:23:05.637Z,26.9
2017-03-14T07:24:05.648Z,26.9
2017-03-14T07:25:06.002Z,26.9
2017-03-14T07:26:07.803Z,26.9
2017-03-14T07:27:06.329Z,26.8
2017-03-14T07:28:06.550Z,26.8
2017-03-14T07:29:08.246Z,26.8
2017-03-14T07:30:05.923Z,26.8
2017-03-14T07:31:06.167Z,26.8
2017-03-14T07:32:06.615Z,26.7
2017-03-14T07:33:06.086Z,26.8
2017-03-14T07:34:06.070Z,26.7
2017-03-14T07:35:07.173Z,26.7
2017-03-14T07:36:07.220Z,26.7
2017-03-14T07:37:06.455Z,26.7
2017-03-14T07:38:06.270Z,26.7
2017-03-14T07:39:07.439Z,26.6
2017-03-14T07:40:07.445Z,26.6
2017-03-14T07:41:07.605Z,26.5
2017-03-14T07:42:06.727Z,26.5
2017-03-14T07:43:07.726Z,26.5
2017-03-14T07:44:07.671Z,26.4
2017-03-14T07:45:07.736Z,26.4
2017-03-14T07:46:06.691Z,26.3
2017-03-14T07:47:06.780Z,26.3
2017-03-14T07:48:07.024Z,26.3
2017-03-14T07:49:06.895Z,26.3
2017-03-14T07:50:07.988Z,26.2
2017-03-14T07:51:07.028Z,26.2
2017-03-14T07:52:07.057Z,26.2
2017-03-14T07:53:08.173Z,26.1
2017-03-14T07:54:07.347Z,26.1
2017-03-14T07:55:08.194Z,26.1
2017-03-14T07:56:07.237Z,26
2017-03-14T07:57:07.844Z,26
2017-03-14T07:58:08.312Z,25.9
2017-03-14T07:59:08.449Z,25.9
2017-03-14T08:00:07.620Z,25.8
2017-03-14T08:01:07.444Z,25.8
2017-03-14T08:02:08.488Z,25.8
2017-03-14T08:03:07.458Z,25.8
2017-03-14T08:04:08.563Z,25.8
2017-03-14T08:05:08.742Z,25.9
2017-03-14T08:06:09.401Z,25.9
2017-03-14T08:07:08.764Z,26
2017-03-14T08:08:08.790Z,26.1
2017-03-14T08:09:08.756Z,26
2017-03-14T08:10:07.916Z,25.9
2017-03-14T08:11:09.040Z,25.7
2017-03-14T08:12:08.072Z,25.5
2017-03-14T08:13:09.225Z,25.3
2017-03-14T08:14:09.279Z,25.1
2017-03-14T08:15:09.295Z,25
2017-03-14T08:16:09.298Z,25
2017-03-14T08:17:08.384Z,24.9
2017-03-14T08:18:08.473Z,24.9
2017-03-14T08:19:09.573Z,24.8
2017-03-14T08:20:08.577Z,24.9
2017-03-14T08:22:09.781Z,24.8
2017-03-14T08:23:10.425Z,24.8
2017-03-14T08:24:08.880Z,24.8
2017-03-14T08:25:09.998Z,24.8
2017-03-14T08:26:08.956Z,24.8
2017-03-14T08:27:08.946Z,24.9
2017-03-14T08:28:09.088Z,24.9
2017-03-14T08:29:10.263Z,24.9
2017-03-14T08:30:10.322Z,25
2017-03-14T08:31:09.376Z,25
2017-03-14T08:32:09.276Z,25.1
2017-03-14T08:33:09.282Z,25.1
2017-03-14T08:34:10.710Z,25.1
2017-03-14T08:35:11.460Z,25.2
2017-03-14T08:36:10.536Z,25.3
2017-03-14T08:37:11.046Z,25.3
2017-03-14T08:38:09.671Z,25.3
2017-03-14T08:39:11.527Z,25.4
2017-03-14T08:40:12.663Z,25.5
2017-03-14T08:41:13.463Z,25.5
2017-03-14T08:42:12.958Z,25.5
2017-03-14T08:43:13.527Z,25.5
2017-03-14T08:44:09.950Z,25.5
2017-03-14T08:45:09.979Z,25.6
2017-03-14T08:46:11.248Z,25.7
2017-03-14T08:47:09.957Z,25.7
2017-03-14T08:48:11.060Z,25.8
2017-03-14T08:49:11.069Z,25.8
2017-03-14T08:50:11.249Z,25.9
2017-03-14T08:51:10.235Z,26
2017-03-14T08:52:11.522Z,26
2017-03-14T08:53:11.345Z,26.1
2017-03-14T08:54:11.484Z,26.1
2017-03-14T08:55:10.416Z,26.1
2017-03-14T08:56:11.540Z,26.2
2017-03-14T08:57:11.853Z,26.2
2017-03-14T08:58:10.594Z,26.2
2017-03-14T08:59:11.663Z,26.3
2017-03-14T09:00:11.763Z,26.3
2017-03-14T09:01:10.720Z,26.3
2017-03-14T09:02:11.928Z,26.2
2017-03-14T09:03:12.242Z,26.2
2017-03-14T09:04:10.945Z,26.3
2017-03-14T09:05:11.064Z,26.3
2017-03-14T09:06:12.210Z,26.2
2017-03-14T09:07:11.120Z,26.2
2017-03-14T09:08:12.340Z,26.2
2017-03-14T09:09:12.245Z,26.2
2017-03-14T09:10:11.355Z,26.2
2017-03-14T09:11:11.432Z,26.3
2017-03-14T09:12:12.548Z,26.2
2017-03-14T09:13:12.486Z,26.2
2017-03-14T09:14:12.626Z,26.1
2017-03-14T09:15:11.809Z,26.2
2017-03-14T09:16:12.714Z,26.2
2017-03-14T09:17:12.290Z,26.2
2017-03-14T09:18:13.153Z,26.2
2017-03-14T09:19:12.558Z,26.2
2017-03-14T09:20:12.466Z,26.2
2017-03-14T09:21:13.759Z,26.2
2017-03-14T09:22:11.984Z,26.2
2017-03-14T09:23:11.971Z,26.3
2017-03-14T09:24:11.999Z,26.2
2017-03-14T09:25:13.163Z,26.2
2017-03-14T09:26:34.501Z,26.1
2017-03-14T09:27:34.465Z,26.1
2017-03-14T09:28:35.565Z,26
2017-03-14T09:29:34.490Z,26
2017-03-14T09:30:35.688Z,26
2017-03-14T09:31:35.136Z,26
2017-03-14T09:32:34.601Z,25.9
2017-03-14T09:33:35.738Z,25.9
2017-03-14T09:34:34.747Z,25.9
2017-03-14T09:35:34.730Z,25.9
2017-03-14T09:36:34.780Z,25.9
2017-03-14T09:37:36.488Z,25.9
2017-03-14T09:38:35.880Z,25.8
2017-03-14T09:39:35.890Z,25.8
2017-03-14T09:40:35.414Z,25.8
2017-03-14T09:41:36.051Z,25.8
2017-03-14T09:42:35.078Z,25.8
2017-03-14T09:43:35.176Z,25.7
2017-03-14T09:44:35.783Z,25.7
2017-03-14T09:45:36.350Z,25.7
2017-03-14T09:46:37.004Z,25.8
2017-03-14T09:47:36.287Z,25.7
2017-03-14T09:48:35.247Z,25.7
2017-03-14T09:49:36.484Z,25.7
2017-03-14T09:50:36.068Z,25.7
2017-03-14T09:51:35.416Z,25.7
2017-03-14T09:52:35.531Z,25.7
2017-03-14T09:53:36.669Z,25.7
2017-03-14T09:54:36.649Z,25.6
2017-03-14T09:55:39.885Z,25.6
2017-03-14T09:56:38.731Z,25.6
2017-03-14T09:57:40.161Z,25.6
2017-03-14T09:58:39.068Z,25.5
2017-03-14T09:59:36.874Z,25.5
2017-03-14T10:00:35.813Z,25.4
2017-03-14T10:01:38.229Z,25.4
2017-03-14T10:02:35.870Z,25.4
2017-03-14T10:03:36.637Z,25.4
2017-03-14T10:04:37.146Z,25.3
2017-03-14T10:05:37.141Z,25.3
2017-03-14T10:06:37.234Z,25.2
2017-03-14T10:07:37.251Z,25.2
2017-03-14T10:08:36.320Z,25.1
2017-03-14T10:09:37.481Z,25
2017-03-14T10:10:39.360Z,25
2017-03-14T10:11:37.569Z,24.9
2017-03-14T10:12:36.567Z,24.8
2017-03-14T10:13:36.519Z,24.8
2017-03-14T10:14:36.553Z,24.7
2017-03-14T10:15:37.707Z,24.7
2017-03-14T10:16:36.779Z,24.6
2017-03-14T10:17:36.684Z,24.6
2017-03-14T10:18:36.871Z,24.5
2017-03-14T10:19:36.744Z,24.5
2017-03-14T10:20:39.735Z,24.4
2017-03-14T10:21:37.925Z,24.4
2017-03-14T10:22:37.969Z,24.3
2017-03-14T10:23:38.068Z,24.3
2017-03-14T10:24:38.080Z,24.3
2017-03-14T10:25:38.130Z,24.2
2017-03-14T10:26:38.082Z,24.2
2017-03-14T10:27:37.106Z,24.1
2017-03-14T10:28:37.090Z,24.1
2017-03-14T10:29:37.160Z,24.1
2017-03-14T10:30:38.855Z,24.1
2017-03-14T10:31:38.927Z,24
2017-03-14T10:32:38.400Z,24
2017-03-14T10:33:40.983Z,24
2017-03-14T10:34:38.348Z,23.9
2017-03-14T10:35:37.966Z,23.9
2017-03-14T10:36:37.314Z,23.9
2017-03-14T10:37:38.879Z,23.7
2017-03-14T10:38:38.461Z,23.7
2017-03-14T10:39:38.076Z,23.6
2017-03-14T10:40:38.556Z,23.7
2017-03-14T10:41:38.951Z,23.6
2017-03-14T10:42:38.200Z,23.6
2017-03-14T10:43:38.666Z,23.6
2017-03-14T10:44:40.448Z,23.6
2017-03-14T10:45:38.419Z,23.7
2017-03-14T10:46:39.442Z,23.7
2017-03-14T10:47:37.803Z,23.8
2017-03-14T10:48:40.053Z,23.8
2017-03-14T10:49:39.600Z,23.8
2017-03-14T10:50:38.569Z,23.8
2017-03-14T10:51:37.819Z,23.9
2017-03-14T10:52:37.918Z,23.9
2017-03-14T10:53:38.053Z,23.9
2017-03-14T10:54:39.169Z,24
2017-03-14T10:55:40.529Z,24
2017-03-14T10:56:38.218Z,24
2017-03-14T10:57:38.318Z,24
2017-03-14T10:58:39.389Z,24
2017-03-14T10:59:39.470Z,24
2017-03-14T11:00:39.453Z,24
2017-03-14T11:01:39.156Z,24.1
2017-03-14T11:02:39.565Z,24.1
2017-03-14T11:03:39.683Z,24.2
2017-03-14T11:04:40.273Z,24.2
2017-03-14T11:05:39.807Z,24.2
2017-03-14T11:06:39.910Z,24.2
2017-03-14T11:07:38.891Z,24.3
2017-03-14T11:08:39.927Z,24.3
2017-03-14T11:09:38.962Z,24.3
2017-03-14T11:10:40.921Z,24.3
2017-03-14T11:11:39.133Z,24.3
2017-03-14T11:12:40.127Z,24.2
2017-03-14T11:13:39.055Z,24.2
2017-03-14T11:14:40.346Z,24.3
2017-03-14T11:15:39.786Z,24.3
2017-03-14T11:16:39.196Z,24.3
2017-03-14T11:17:40.323Z,24.4
2017-03-14T11:18:40.532Z,24.4
2017-03-14T11:19:41.434Z,24.4
2017-03-14T11:20:40.461Z,24.4
2017-03-14T11:21:40.495Z,24.4
2017-03-14T11:22:39.559Z,24.5
2017-03-14T11:23:39.567Z,24.4
2017-03-14T11:24:40.659Z,24.4
2017-03-14T11:25:40.561Z,24.4
2017-03-14T11:26:40.695Z,24.4
2017-03-14T11:27:39.739Z,24.4
2017-03-14T11:28:40.933Z,24.4
2017-03-14T11:29:41.986Z,24.5
2017-03-14T11:30:40.900Z,24.5
2017-03-14T11:31:39.976Z,24.5
2017-03-14T11:32:40.990Z,24.5
2017-03-14T11:33:41.109Z,24.5
2017-03-14T11:34:40.106Z,24.5
2017-03-14T11:35:44.327Z,24.5
2017-03-14T11:36:41.697Z,24.5
2017-03-14T11:37:40.678Z,24.5
2017-03-14T11:38:40.062Z,24.6
2017-03-14T11:39:41.919Z,24.6
2017-03-14T11:40:41.854Z,24.6
2017-03-14T11:41:40.913Z,24.6
2017-03-14T11:42:40.156Z,24.6
2017-03-14T11:43:41.320Z,24.6
2017-03-14T11:44:40.308Z,24.6
2017-03-14T11:45:40.367Z,24.6
2017-03-14T11:46:41.474Z,24.6
2017-03-14T11:47:42.230Z,24.6
2017-03-14T11:48:41.566Z,24.6
2017-03-14T11:49:42.311Z,24.6
2017-03-14T11:50:40.572Z,24.6
2017-03-14T11:51:41.787Z,24.6
2017-03-14T11:52:41.808Z,24.6
2017-03-14T11:53:40.770Z,24.5
2017-03-14T11:54:43.043Z,24.5
2017-03-14T11:55:42.424Z,24.6
2017-03-14T11:56:42.643Z,24.6
2017-03-14T11:57:40.910Z,24.6
2017-03-14T11:58:40.859Z,24.6
2017-03-14T11:59:40.985Z,24.7
2017-03-14T12:00:42.011Z,24.7
2017-03-14T12:01:41.785Z,24.7
2017-03-14T12:02:41.055Z,24.7
2017-03-14T12:03:42.232Z,24.7
2017-03-14T12:04:42.257Z,24.7
2017-03-14T12:05:41.262Z,24.7
2017-03-14T12:06:41.192Z,24.7
2017-03-14T12:07:41.296Z,24.7
2017-03-14T12:08:42.568Z,24.7
2017-03-14T12:09:41.499Z,24.7
2017-03-14T12:10:41.475Z,24.7
2017-03-14T12:11:42.606Z,24.6
2017-03-14T12:12:42.710Z,24.6
2017-03-14T12:13:41.709Z,24.5
2017-03-14T12:14:42.763Z,24.5
2017-03-14T12:15:41.817Z,24.5
2017-03-14T12:16:43.503Z,24.5
2017-03-14T12:17:41.774Z,24.5
2017-03-14T12:18:42.549Z,24.4
2017-03-14T12:19:41.999Z,24.4
2017-03-14T12:20:42.806Z,24.3
2017-03-14T12:21:43.820Z,24.3
2017-03-14T12:22:43.118Z,24.3
2017-03-14T12:23:43.838Z,24.4
2017-03-14T12:24:43.219Z,24.4
2017-03-14T12:25:44.175Z,24.4
2017-03-14T12:26:42.834Z,24.4
2017-03-14T12:27:43.116Z,24.4
2017-03-14T12:28:43.409Z,24.4
2017-03-14T12:29:43.675Z,24.4
2017-03-14T12:30:43.531Z,24.4
2017-03-14T12:31:43.697Z,24.5
2017-03-14T12:32:42.663Z,24.4
2017-03-14T12:33:43.766Z,24.4
2017-03-14T12:34:42.737Z,24.4
2017-03-14T12:35:42.794Z,24.4
2017-03-14T12:36:43.875Z,24.4
2017-03-14T12:37:43.915Z,24.4
2017-03-14T12:38:42.953Z,24.4
2017-03-14T12:39:44.124Z,24.4
2017-03-14T12:40:43.018Z,24.4
2017-03-14T12:41:43.094Z,24.4
2017-03-14T12:42:43.645Z,24.4
2017-03-14T12:43:43.086Z,24.4
2017-03-14T12:44:43.098Z,24.4
2017-03-14T12:45:44.378Z,24.4
2017-03-14T12:46:44.364Z,24.4
2017-03-14T12:47:43.303Z,24.4
2017-03-14T12:48:43.917Z,24.5
2017-03-14T12:49:43.332Z,24.6
2017-03-14T12:50:43.523Z,24.7
2017-03-14T12:51:45.572Z,24.8
2017-03-14T12:52:43.605Z,24.9
2017-03-14T12:53:44.674Z,24.9
2017-03-14T12:54:43.748Z,25
2017-03-14T12:55:43.737Z,25.1
2017-03-14T12:56:44.965Z,25.1
2017-03-14T12:57:47.823Z,25.2
2017-03-14T12:58:43.836Z,25.2
2017-03-14T12:59:47.234Z,25.3
2017-03-14T13:00:46.503Z,25.3
2017-03-14T13:01:46.376Z,25.4
2017-03-14T13:02:47.055Z,25.4
2017-03-14T13:03:52.013Z,25.5
2017-03-14T13:04:50.956Z,25.5
2017-03-14T13:05:51.273Z,25.5
2017-03-14T13:06:50.668Z,25.5
2017-03-14T13:07:48.595Z,25.5
2017-03-14T13:08:47.082Z,25.5
2017-03-14T13:09:48.867Z,25.6
2017-03-14T13:10:46.923Z,25.6
2017-03-14T13:11:50.871Z,25.6
2017-03-14T13:12:49.064Z,25.6
2017-03-14T13:13:48.336Z,25.6
2017-03-14T13:14:52.898Z,25.6
2017-03-14T13:15:51.994Z,25.7
2017-03-14T13:16:46.713Z,25.7
2017-03-14T13:17:46.723Z,25.8
2017-03-14T13:18:46.778Z,25.8
2017-03-14T13:19:52.379Z,25.9
2017-03-14T13:20:50.201Z,25.9
2017-03-14T13:21:51.565Z,25.9
2017-03-14T13:22:46.440Z,25.9
2017-03-14T13:23:47.082Z,26
2017-03-14T13:24:46.436Z,26
2017-03-14T13:25:47.204Z,26
2017-03-14T13:26:47.069Z,26
2017-03-14T13:27:53.563Z,26
2017-03-14T13:28:48.250Z,26
2017-03-14T13:29:45.648Z,26
2017-03-14T13:30:46.973Z,26.1
2017-03-14T13:31:45.801Z,26.1
2017-03-14T13:32:46.907Z,26.1